sensor_id;sensor_type;location;lat;lon;timestamp;temperature;humidity
39777;DHT22;25453;48.162;14.510;2024-02-21T00:00:38;9.80;64.30
39777;DHT22;25453;48.162;14.510;2024-02-21T00:03:13;9.80;64.20
39777;DHT22;25453;48.162;14.510;2024-02-21T00:05:41;9.80;64.20
39777;DHT22;25453;48.162;14.510;2024-02-21T00:08:14;9.80;64.10
39777;DHT22;25453;48.162;14.510;2024-02-21T00:10:42;9.90;64.00
39777;DHT22;25453;48.162;14.510;2024-02-21T00:13:09;9.90;64.00
39777;DHT22;25453;48.162;14.510;2024-02-21T00:15:43;9.90;63.80
39777;DHT22;25453;48.162;14.510;2024-02-21T00:18:10;9.90;63.70
39777;DHT22;25453;48.162;14.510;2024-02-21T00:20:44;9.90;63.60
39777;DHT22;25453;48.162;14.510;2024-02-21T00:23:12;9.90;63.60
39777;DHT22;25453;48.162;14.510;2024-02-21T00:25:45;9.90;63.60
39777;DHT22;25453;48.162;14.510;2024-02-21T00:28:12;9.90;63.50
39777;DHT22;25453;48.162;14.510;2024-02-21T00:30:40;9.90;63.50
39777;DHT22;25453;48.162;14.510;2024-02-21T00:33:13;9.90;63.60
39777;DHT22;25453;48.162;14.510;2024-02-21T00:35:41;9.90;63.60
39777;DHT22;25453;48.162;14.510;2024-02-21T00:38:16;9.90;63.60
39777;DHT22;25453;48.162;14.510;2024-02-21T00:40:43;9.90;63.60
39777;DHT22;25453;48.162;14.510;2024-02-21T00:43:10;9.90;63.60
39777;DHT22;25453;48.162;14.510;2024-02-21T00:45:44;9.90;63.60
39777;DHT22;25453;48.162;14.510;2024-02-21T00:48:18;9.90;63.60
39777;DHT22;25453;48.162;14.510;2024-02-21T00:51:06;9.90;63.60
39777;DHT22;25453;48.162;14.510;2024-02-21T00:53:33;9.90;63.60
39777;DHT22;25453;48.162;14.510;2024-02-21T00:56:06;9.90;63.50
39777;DHT22;25453;48.162;14.510;2024-02-21T00:58:33;9.90;63.40
39777;DHT22;25453;48.162;14.510;2024-02-21T01:01:07;9.90;63.40
39777;DHT22;25453;48.162;14.510;2024-02-21T01:03:34;9.90;63.50
39777;DHT22;25453;48.162;14.510;2024-02-21T01:06:08;9.90;63.50
39777;DHT22;25453;48.162;14.510;2024-02-21T01:08:35;9.80;63.50
39777;DHT22;25453;48.162;14.510;2024-02-21T01:11:09;9.80;63.40
39777;DHT22;25453;48.162;14.510;2024-02-21T01:13:44;9.80;63.40
39777;DHT22;25453;48.162;14.510;2024-02-21T01:16:18;9.80;63.40
39777;DHT22;25453;48.162;14.510;2024-02-21T01:18:52;9.80;63.40
39777;DHT22;25453;48.162;14.510;2024-02-21T01:21:20;9.80;63.40
39777;DHT22;25453;48.162;14.510;2024-02-21T01:23:54;9.80;63.40
39777;DHT22;25453;48.162;14.510;2024-02-21T01:26:21;9.80;63.30
39777;DHT22;25453;48.162;14.510;2024-02-21T01:28:55;9.80;62.90
39777;DHT22;25453;48.162;14.510;2024-02-21T01:31:23;9.80;62.90
39777;DHT22;25453;48.162;14.510;2024-02-21T01:33:50;9.80;62.90
39777;DHT22;25453;48.162;14.510;2024-02-21T01:36:24;9.80;62.90
39777;DHT22;25453;48.162;14.510;2024-02-21T01:38:51;9.80;62.70
39777;DHT22;25453;48.162;14.510;2024-02-21T01:41:25;9.80;62.70
39777;DHT22;25453;48.162;14.510;2024-02-21T01:43:52;9.90;62.60
39777;DHT22;25453;48.162;14.510;2024-02-21T01:46:27;9.90;62.50
39777;DHT22;25453;48.162;14.510;2024-02-21T01:49:02;9.90;62.40
39777;DHT22;25453;48.162;14.510;2024-02-21T01:51:43;9.90;62.40
39777;DHT22;25453;48.162;14.510;2024-02-21T01:54:18;9.90;62.30
39777;DHT22;25453;48.162;14.510;2024-02-21T01:56:47;9.90;62.20
39777;DHT22;25453;48.162;14.510;2024-02-21T01:59:15;9.90;62.30
39777;DHT22;25453;48.162;14.510;2024-02-21T02:01:51;9.90;62.20
39777;DHT22;25453;48.162;14.510;2024-02-21T02:04:20;9.90;62.10
39777;DHT22;25453;48.162;14.510;2024-02-21T02:06:55;9.90;62.10
39777;DHT22;25453;48.162;14.510;2024-02-21T02:09:22;9.90;62.00
39777;DHT22;25453;48.162;14.510;2024-02-21T02:11:50;9.80;62.00
39777;DHT22;25453;48.162;14.510;2024-02-21T02:14:25;9.80;61.90
39777;DHT22;25453;48.162;14.510;2024-02-21T02:16:52;9.80;61.90
39777;DHT22;25453;48.162;14.510;2024-02-21T02:19:26;9.80;61.90
39777;DHT22;25453;48.162;14.510;2024-02-21T02:22:00;9.80;61.80
39777;DHT22;25453;48.162;14.510;2024-02-21T02:24:36;9.80;61.70
39777;DHT22;25453;48.162;14.510;2024-02-21T02:27:04;9.80;61.60
39777;DHT22;25453;48.162;14.510;2024-02-21T02:29:37;9.80;61.60
39777;DHT22;25453;48.162;14.510;2024-02-21T02:32:05;9.80;61.40
39777;DHT22;25453;48.162;14.510;2024-02-21T02:34:33;9.80;61.30
39777;DHT22;25453;48.162;14.510;2024-02-21T02:37:06;9.80;61.10
39777;DHT22;25453;48.162;14.510;2024-02-21T02:39:40;9.70;60.90
39777;DHT22;25453;48.162;14.510;2024-02-21T02:42:07;9.70;60.90
39777;DHT22;25453;48.162;14.510;2024-02-21T02:44:35;9.70;61.00
39777;DHT22;25453;48.162;14.510;2024-02-21T02:47:16;9.70;61.00
39777;DHT22;25453;48.162;14.510;2024-02-21T02:49:56;9.70;60.80
39777;DHT22;25453;48.162;14.510;2024-02-21T02:52:30;9.70;60.70
39777;DHT22;25453;48.162;14.510;2024-02-21T02:54:58;9.70;60.80
39777;DHT22;25453;48.162;14.510;2024-02-21T02:57:25;9.70;60.70
39777;DHT22;25453;48.162;14.510;2024-02-21T02:59:59;9.70;60.60
39777;DHT22;25453;48.162;14.510;2024-02-21T03:02:33;9.70;60.50
39777;DHT22;25453;48.162;14.510;2024-02-21T03:05:01;9.70;60.50
39777;DHT22;25453;48.162;14.510;2024-02-21T03:07:34;9.70;60.40
39777;DHT22;25453;48.162;14.510;2024-02-21T03:10:01;9.80;60.30
39777;DHT22;25453;48.162;14.510;2024-02-21T03:12:28;9.70;60.30
39777;DHT22;25453;48.162;14.510;2024-02-21T03:15:04;9.70;60.30
39777;DHT22;25453;48.162;14.510;2024-02-21T03:17:38;9.70;60.30
39777;DHT22;25453;48.162;14.510;2024-02-21T03:20:07;9.80;60.30
39777;DHT22;25453;48.162;14.510;2024-02-21T03:22:40;9.80;60.30
39777;DHT22;25453;48.162;14.510;2024-02-21T03:25:14;9.80;60.30
39777;DHT22;25453;48.162;14.510;2024-02-21T03:27:42;9.80;60.30
39777;DHT22;25453;48.162;14.510;2024-02-21T03:30:16;9.80;60.30
39777;DHT22;25453;48.162;14.510;2024-02-21T03:32:43;9.80;60.20
39777;DHT22;25453;48.162;14.510;2024-02-21T03:35:17;9.80;60.30
39777;DHT22;25453;48.162;14.510;2024-02-21T03:37:51;9.90;60.30
39777;DHT22;25453;48.162;14.510;2024-02-21T03:40:25;9.90;60.30
39777;DHT22;25453;48.162;14.510;2024-02-21T03:42:59;9.90;60.30
39777;DHT22;25453;48.162;14.510;2024-02-21T03:45:26;9.90;60.30
39777;DHT22;25453;48.162;14.510;2024-02-21T03:47:53;9.90;60.30
39777;DHT22;25453;48.162;14.510;2024-02-21T03:50:34;9.90;60.30
39777;DHT22;25453;48.162;14.510;2024-02-21T03:53:01;9.90;60.30
39777;DHT22;25453;48.162;14.510;2024-02-21T03:55:35;9.90;60.30
39777;DHT22;25453;48.162;14.510;2024-02-21T03:58:03;10.00;60.20
39777;DHT22;25453;48.162;14.510;2024-02-21T04:00:30;10.00;60.20
39777;DHT22;25453;48.162;14.510;2024-02-21T04:03:03;10.00;60.20
39777;DHT22;25453;48.162;14.510;2024-02-21T04:05:31;10.00;60.20
39777;DHT22;25453;48.162;14.510;2024-02-21T04:08:07;10.00;60.20
39777;DHT22;25453;48.162;14.510;2024-02-21T04:10:34;10.00;60.20
39777;DHT22;25453;48.162;14.510;2024-02-21T04:13:15;10.00;60.20
39777;DHT22;25453;48.162;14.510;2024-02-21T04:15:42;10.00;60.20
39777;DHT22;25453;48.162;14.510;2024-02-21T04:18:16;10.00;60.20
39777;DHT22;25453;48.162;14.510;2024-02-21T04:20:43;10.00;60.20
39777;DHT22;25453;48.162;14.510;2024-02-21T04:23:10;10.00;60.20
39777;DHT22;25453;48.162;14.510;2024-02-21T04:25:44;10.00;60.20
39777;DHT22;25453;48.162;14.510;2024-02-21T04:28:18;10.00;60.20
39777;DHT22;25453;48.162;14.510;2024-02-21T04:30:51;10.00;60.20
39777;DHT22;25453;48.162;14.510;2024-02-21T04:33:18;10.00;60.00
39777;DHT22;25453;48.162;14.510;2024-02-21T04:35:46;10.00;60.20
39777;DHT22;25453;48.162;14.510;2024-02-21T04:38:19;10.00;60.20
39777;DHT22;25453;48.162;14.510;2024-02-21T04:40:46;10.00;60.30
39777;DHT22;25453;48.162;14.510;2024-02-21T04:43:20;10.00;60.40
39777;DHT22;25453;48.162;14.510;2024-02-21T04:45:54;10.00;60.40
39777;DHT22;25453;48.162;14.510;2024-02-21T04:48:28;10.00;60.40
39777;DHT22;25453;48.162;14.510;2024-02-21T04:51:09;10.00;60.40
39777;DHT22;25453;48.162;14.510;2024-02-21T04:53:42;10.00;60.40
39777;DHT22;25453;48.162;14.510;2024-02-21T04:56:10;10.00;60.50
39777;DHT22;25453;48.162;14.510;2024-02-21T04:58:40;10.00;60.50
39777;DHT22;25453;48.162;14.510;2024-02-21T05:01:14;10.00;60.50
39777;DHT22;25453;48.162;14.510;2024-02-21T05:03:42;10.00;60.40
39777;DHT22;25453;48.162;14.510;2024-02-21T05:06:16;9.90;60.50
39777;DHT22;25453;48.162;14.510;2024-02-21T05:08:43;9.90;60.50
39777;DHT22;25453;48.162;14.510;2024-02-21T05:11:17;9.90;60.60
39777;DHT22;25453;48.162;14.510;2024-02-21T05:13:45;9.90;60.70
39777;DHT22;25453;48.162;14.510;2024-02-21T05:16:18;9.90;60.60
39777;DHT22;25453;48.162;14.510;2024-02-21T05:18:52;9.80;60.60
39777;DHT22;25453;48.162;14.510;2024-02-21T05:21:20;9.80;60.70
39777;DHT22;25453;48.162;14.510;2024-02-21T05:23:47;9.70;60.80
39777;DHT22;25453;48.162;14.510;2024-02-21T05:26:24;9.60;61.00
39777;DHT22;25453;48.162;14.510;2024-02-21T05:28:52;9.60;61.10
39777;DHT22;25453;48.162;14.510;2024-02-21T05:34:19;9.40;61.50
39777;DHT22;25453;48.162;14.510;2024-02-21T05:36:54;9.40;61.70
39777;DHT22;25453;48.162;14.510;2024-02-21T05:39:21;9.30;61.80
39777;DHT22;25453;48.162;14.510;2024-02-21T05:41:50;9.30;62.00
39777;DHT22;25453;48.162;14.510;2024-02-21T05:44:24;9.30;62.20
39777;DHT22;25453;48.162;14.510;2024-02-21T05:46:54;9.30;62.20
39777;DHT22;25453;48.162;14.510;2024-02-21T05:49:28;9.30;62.30
39777;DHT22;25453;48.162;14.510;2024-02-21T05:52:03;9.30;62.40
39777;DHT22;25453;48.162;14.510;2024-02-21T05:54:38;9.30;62.60
39777;DHT22;25453;48.162;14.510;2024-02-21T05:57:07;9.30;62.60
39777;DHT22;25453;48.162;14.510;2024-02-21T05:59:41;9.30;62.60
39777;DHT22;25453;48.162;14.510;2024-02-21T06:02:08;9.30;62.70
39777;DHT22;25453;48.162;14.510;2024-02-21T06:04:42;9.30;62.70
39777;DHT22;25453;48.162;14.510;2024-02-21T06:07:11;9.20;62.80
39777;DHT22;25453;48.162;14.510;2024-02-21T06:09:38;9.20;62.90
39777;DHT22;25453;48.162;14.510;2024-02-21T06:12:12;9.10;63.10
39777;DHT22;25453;48.162;14.510;2024-02-21T06:14:46;9.10;63.40
39777;DHT22;25453;48.162;14.510;2024-02-21T06:17:14;9.10;63.50
39777;DHT22;25453;48.162;14.510;2024-02-21T06:19:43;9.10;63.70
39777;DHT22;25453;48.162;14.510;2024-02-21T06:22:17;9.10;63.80
39777;DHT22;25453;48.162;14.510;2024-02-21T06:24:44;9.20;64.00
39777;DHT22;25453;48.162;14.510;2024-02-21T06:27:18;9.20;64.00
39777;DHT22;25453;48.162;14.510;2024-02-21T06:29:45;9.10;64.00
39777;DHT22;25453;48.162;14.510;2024-02-21T06:32:19;9.10;64.20
39777;DHT22;25453;48.162;14.510;2024-02-21T06:34:53;9.10;64.30
39777;DHT22;25453;48.162;14.510;2024-02-21T06:37:22;9.10;64.40
39777;DHT22;25453;48.162;14.510;2024-02-21T06:39:49;9.10;64.60
39777;DHT22;25453;48.162;14.510;2024-02-21T06:42:25;9.10;64.70
39777;DHT22;25453;48.162;14.510;2024-02-21T06:44:52;9.10;64.80
39777;DHT22;25453;48.162;14.510;2024-02-21T06:47:26;9.20;64.90
39777;DHT22;25453;48.162;14.510;2024-02-21T06:50:00;9.20;65.00
39777;DHT22;25453;48.162;14.510;2024-02-21T06:52:33;9.20;65.10
39777;DHT22;25453;48.162;14.510;2024-02-21T06:55:03;9.30;65.20
39777;DHT22;25453;48.162;14.510;2024-02-21T06:57:37;9.30;65.30
39777;DHT22;25453;48.162;14.510;2024-02-21T07:00:06;9.40;65.30
39777;DHT22;25453;48.162;14.510;2024-02-21T07:02:36;9.40;65.30
39777;DHT22;25453;48.162;14.510;2024-02-21T07:05:11;9.50;65.30
39777;DHT22;25453;48.162;14.510;2024-02-21T07:07:38;9.50;65.10
39777;DHT22;25453;48.162;14.510;2024-02-21T07:10:14;9.50;65.20
39777;DHT22;25453;48.162;14.510;2024-02-21T07:12:42;9.50;65.50
39777;DHT22;25453;48.162;14.510;2024-02-21T07:15:10;9.50;65.50
39777;DHT22;25453;48.162;14.510;2024-02-21T07:17:45;9.60;65.60
39777;DHT22;25453;48.162;14.510;2024-02-21T07:20:13;9.70;65.60
39777;DHT22;25453;48.162;14.510;2024-02-21T07:22:47;9.80;65.60
39777;DHT22;25453;48.162;14.510;2024-02-21T07:25:16;9.80;65.40
39777;DHT22;25453;48.162;14.510;2024-02-21T07:27:50;9.90;65.10
39777;DHT22;25453;48.162;14.510;2024-02-21T07:30:17;9.90;65.40
39777;DHT22;25453;48.162;14.510;2024-02-21T07:32:44;10.00;64.80
39777;DHT22;25453;48.162;14.510;2024-02-21T07:35:18;10.00;64.70
39777;DHT22;25453;48.162;14.510;2024-02-21T07:37:46;10.10;64.60
39777;DHT22;25453;48.162;14.510;2024-02-21T07:40:19;10.10;64.40
39777;DHT22;25453;48.162;14.510;2024-02-21T07:42:47;10.20;64.30
39777;DHT22;25453;48.162;14.510;2024-02-21T07:45:20;10.20;64.20
39777;DHT22;25453;48.162;14.510;2024-02-21T07:47:51;10.30;64.10
39777;DHT22;25453;48.162;14.510;2024-02-21T07:50:24;10.30;63.90
39777;DHT22;25453;48.162;14.510;2024-02-21T07:52:59;10.40;63.70
39777;DHT22;25453;48.162;14.510;2024-02-21T07:55:32;10.40;63.60
39777;DHT22;25453;48.162;14.510;2024-02-21T07:57:59;10.40;63.40
39777;DHT22;25453;48.162;14.510;2024-02-21T08:00:33;10.50;63.30
39777;DHT22;25453;48.162;14.510;2024-02-21T08:03:01;10.60;62.90
39777;DHT22;25453;48.162;14.510;2024-02-21T08:05:35;10.60;62.70
39777;DHT22;25453;48.162;14.510;2024-02-21T08:08:03;10.60;62.50
39777;DHT22;25453;48.162;14.510;2024-02-21T08:10:39;10.60;62.30
39777;DHT22;25453;48.162;14.510;2024-02-21T08:13:06;10.70;62.10
39777;DHT22;25453;48.162;14.510;2024-02-21T08:15:41;10.70;62.00
39777;DHT22;25453;48.162;14.510;2024-02-21T08:18:15;10.70;61.80
39777;DHT22;25453;48.162;14.510;2024-02-21T08:20:43;10.70;61.70
39777;DHT22;25453;48.162;14.510;2024-02-21T08:23:18;10.70;61.60
39777;DHT22;25453;48.162;14.510;2024-02-21T08:25:45;10.70;61.40
39777;DHT22;25453;48.162;14.510;2024-02-21T08:28:19;10.70;61.20
39777;DHT22;25453;48.162;14.510;2024-02-21T08:30:57;10.70;61.10
39777;DHT22;25453;48.162;14.510;2024-02-21T08:33:31;10.80;61.20
39777;DHT22;25453;48.162;14.510;2024-02-21T08:35:58;10.80;61.00
39777;DHT22;25453;48.162;14.510;2024-02-21T08:38:32;10.90;61.00
39777;DHT22;25453;48.162;14.510;2024-02-21T08:41:00;11.00;60.90
39777;DHT22;25453;48.162;14.510;2024-02-21T08:43:34;11.10;60.80
39777;DHT22;25453;48.162;14.510;2024-02-21T08:46:03;11.20;60.40
39777;DHT22;25453;48.162;14.510;2024-02-21T08:48:31;11.30;60.00
39777;DHT22;25453;48.162;14.510;2024-02-21T08:51:11;11.30;59.70
39777;DHT22;25453;48.162;14.510;2024-02-21T08:53:39;11.30;59.60
39777;DHT22;25453;48.162;14.510;2024-02-21T08:56:12;11.30;59.50
39777;DHT22;25453;48.162;14.510;2024-02-21T08:58:40;11.30;59.50
39777;DHT22;25453;48.162;14.510;2024-02-21T09:01:14;11.30;59.30
39777;DHT22;25453;48.162;14.510;2024-02-21T09:03:42;11.30;59.20
39777;DHT22;25453;48.162;14.510;2024-02-21T09:06:16;11.30;59.00
39777;DHT22;25453;48.162;14.510;2024-02-21T09:08:43;11.30;58.70
39777;DHT22;25453;48.162;14.510;2024-02-21T09:11:17;11.20;58.70
39777;DHT22;25453;48.162;14.510;2024-02-21T09:13:45;11.20;58.60
39777;DHT22;25453;48.162;14.510;2024-02-21T09:16:18;11.10;58.60
39777;DHT22;25453;48.162;14.510;2024-02-21T09:18:46;11.10;58.50
39777;DHT22;25453;48.162;14.510;2024-02-21T09:21:19;11.10;58.50
39777;DHT22;25453;48.162;14.510;2024-02-21T09:23:47;11.10;58.60
39777;DHT22;25453;48.162;14.510;2024-02-21T09:26:25;11.10;58.50
39777;DHT22;25453;48.162;14.510;2024-02-21T09:28:52;11.10;58.40
39777;DHT22;25453;48.162;14.510;2024-02-21T09:31:19;11.10;58.40
39777;DHT22;25453;48.162;14.510;2024-02-21T09:33:53;11.10;58.30
39777;DHT22;25453;48.162;14.510;2024-02-21T09:36:21;11.10;58.20
39777;DHT22;25453;48.162;14.510;2024-02-21T09:38:55;11.10;58.20
39777;DHT22;25453;48.162;14.510;2024-02-21T09:41:26;11.10;58.20
39777;DHT22;25453;48.162;14.510;2024-02-21T09:44:03;11.20;58.10
39777;DHT22;25453;48.162;14.510;2024-02-21T09:47:07;11.20;58.10
39777;DHT22;25453;48.162;14.510;2024-02-21T09:49:34;11.20;58.00
39777;DHT22;25453;48.162;14.510;2024-02-21T09:52:10;11.20;57.80
39777;DHT22;25453;48.162;14.510;2024-02-21T09:54:47;11.20;57.70
39777;DHT22;25453;48.162;14.510;2024-02-21T09:57:16;11.20;57.60
39777;DHT22;25453;48.162;14.510;2024-02-21T09:59:52;11.20;57.50
39777;DHT22;25453;48.162;14.510;2024-02-21T10:02:20;11.20;57.50
39777;DHT22;25453;48.162;14.510;2024-02-21T10:04:54;11.20;57.50
39777;DHT22;25453;48.162;14.510;2024-02-21T10:07:22;11.20;57.50
39777;DHT22;25453;48.162;14.510;2024-02-21T10:10:03;11.20;57.50
39777;DHT22;25453;48.162;14.510;2024-02-21T10:12:31;11.20;57.50
39777;DHT22;25453;48.162;14.510;2024-02-21T10:15:06;11.30;57.50
39777;DHT22;25453;48.162;14.510;2024-02-21T10:17:33;11.30;57.50
39777;DHT22;25453;48.162;14.510;2024-02-21T10:20:11;11.30;57.60
39777;DHT22;25453;48.162;14.510;2024-02-21T10:22:39;11.30;57.80
39777;DHT22;25453;48.162;14.510;2024-02-21T10:27:41;11.30;58.30
39777;DHT22;25453;48.162;14.510;2024-02-21T10:30:14;11.30;58.30
39777;DHT22;25453;48.162;14.510;2024-02-21T10:32:54;11.40;58.30
39777;DHT22;25453;48.162;14.510;2024-02-21T10:35:33;11.40;58.30
39777;DHT22;25453;48.162;14.510;2024-02-21T10:38:06;11.50;58.30
39777;DHT22;25453;48.162;14.510;2024-02-21T10:40:34;11.50;58.20
39777;DHT22;25453;48.162;14.510;2024-02-21T10:43:12;11.60;58.00
39777;DHT22;25453;48.162;14.510;2024-02-21T10:45:41;11.60;57.90
39777;DHT22;25453;48.162;14.510;2024-02-21T10:48:28;11.70;57.90
39777;DHT22;25453;48.162;14.510;2024-02-21T10:51:18;11.70;57.90
39777;DHT22;25453;48.162;14.510;2024-02-21T10:53:57;11.70;58.00
39777;DHT22;25453;48.162;14.510;2024-02-21T10:56:32;11.70;58.00
39777;DHT22;25453;48.162;14.510;2024-02-21T10:59:13;11.80;58.20
39777;DHT22;25453;48.162;14.510;2024-02-21T11:01:41;11.80;58.30
39777;DHT22;25453;48.162;14.510;2024-02-21T11:04:16;11.90;58.30
39777;DHT22;25453;48.162;14.510;2024-02-21T11:06:43;11.90;58.10
39777;DHT22;25453;48.162;14.510;2024-02-21T11:09:29;12.00;58.00
39777;DHT22;25453;48.162;14.510;2024-02-21T11:12:03;12.00;57.90
39777;DHT22;25453;48.162;14.510;2024-02-21T11:14:38;12.00;57.60
39777;DHT22;25453;48.162;14.510;2024-02-21T11:19:50;11.90;57.40
39777;DHT22;25453;48.162;14.510;2024-02-21T11:22:19;11.90;57.50
39777;DHT22;25453;48.162;14.510;2024-02-21T11:25:06;11.80;57.50
39777;DHT22;25453;48.162;14.510;2024-02-21T11:27:46;11.80;57.50
39777;DHT22;25453;48.162;14.510;2024-02-21T11:30:27;11.80;57.50
39777;DHT22;25453;48.162;14.510;2024-02-21T11:33:06;11.80;57.30
39777;DHT22;25453;48.162;14.510;2024-02-21T11:35:39;11.80;57.40
39777;DHT22;25453;48.162;14.510;2024-02-21T11:38:14;11.80;57.60
39777;DHT22;25453;48.162;14.510;2024-02-21T11:40:45;11.80;57.60
39777;DHT22;25453;48.162;14.510;2024-02-21T11:43:19;11.80;57.60
39777;DHT22;25453;48.162;14.510;2024-02-21T11:45:47;11.80;57.70
39777;DHT22;25453;48.162;14.510;2024-02-21T11:48:14;11.90;57.70
39777;DHT22;25453;48.162;14.510;2024-02-21T11:50:56;11.90;57.50
39777;DHT22;25453;48.162;14.510;2024-02-21T11:53:23;11.80;57.60
39777;DHT22;25453;48.162;14.510;2024-02-21T11:56:01;11.80;57.60
39777;DHT22;25453;48.162;14.510;2024-02-21T11:58:29;11.80;57.60
39777;DHT22;25453;48.162;14.510;2024-02-21T12:01:04;11.90;57.70
39777;DHT22;25453;48.162;14.510;2024-02-21T12:03:33;11.90;57.60
39777;DHT22;25453;48.162;14.510;2024-02-21T12:06:08;11.90;57.50
39777;DHT22;25453;48.162;14.510;2024-02-21T12:08:44;11.90;57.40
39777;DHT22;25453;48.162;14.510;2024-02-21T12:11:21;11.90;57.50
39777;DHT22;25453;48.162;14.510;2024-02-21T12:14:02;11.80;57.50
39777;DHT22;25453;48.162;14.510;2024-02-21T12:16:32;11.90;57.50
39777;DHT22;25453;48.162;14.510;2024-02-21T12:19:07;11.90;57.50
39777;DHT22;25453;48.162;14.510;2024-02-21T12:21:36;11.90;57.50
39777;DHT22;25453;48.162;14.510;2024-02-21T12:24:23;12.00;57.60
39777;DHT22;25453;48.162;14.510;2024-02-21T12:26:52;12.10;57.60
39777;DHT22;25453;48.162;14.510;2024-02-21T12:29:25;12.20;57.60
39777;DHT22;25453;48.162;14.510;2024-02-21T12:31:53;12.40;57.50
39777;DHT22;25453;48.162;14.510;2024-02-21T12:34:29;12.50;57.40
39777;DHT22;25453;48.162;14.510;2024-02-21T12:37:18;12.60;57.10
39777;DHT22;25453;48.162;14.510;2024-02-21T12:39:53;12.60;56.90
39777;DHT22;25453;48.162;14.510;2024-02-21T12:42:21;12.60;56.50
39777;DHT22;25453;48.162;14.510;2024-02-21T12:44:56;12.70;56.60
39777;DHT22;25453;48.162;14.510;2024-02-21T12:47:24;12.70;56.50
39777;DHT22;25453;48.162;14.510;2024-02-21T12:49:59;12.70;56.60
39777;DHT22;25453;48.162;14.510;2024-02-21T12:52:41;12.80;56.60
39777;DHT22;25453;48.162;14.510;2024-02-21T12:55:15;12.80;56.50
39777;DHT22;25453;48.162;14.510;2024-02-21T12:57:43;12.80;56.40
39777;DHT22;25453;48.162;14.510;2024-02-21T13:00:17;12.80;56.30
39777;DHT22;25453;48.162;14.510;2024-02-21T13:02:44;12.80;56.20
39777;DHT22;25453;48.162;14.510;2024-02-21T13:05:13;12.70;56.20
39777;DHT22;25453;48.162;14.510;2024-02-21T13:07:47;12.70;56.10
39777;DHT22;25453;48.162;14.510;2024-02-21T13:10:15;12.60;56.10
39777;DHT22;25453;48.162;14.510;2024-02-21T13:12:49;12.60;56.60
39777;DHT22;25453;48.162;14.510;2024-02-21T13:15:17;12.70;56.90
39777;DHT22;25453;48.162;14.510;2024-02-21T13:17:51;12.70;56.90
39777;DHT22;25453;48.162;14.510;2024-02-21T13:20:19;12.90;56.90
39777;DHT22;25453;48.162;14.510;2024-02-21T13:22:54;12.90;56.90
39777;DHT22;25453;48.162;14.510;2024-02-21T13:25:22;13.00;56.60
39777;DHT22;25453;48.162;14.510;2024-02-21T13:27:49;13.00;56.40
39777;DHT22;25453;48.162;14.510;2024-02-21T13:30:23;13.10;56.30
39777;DHT22;25453;48.162;14.510;2024-02-21T13:32:52;13.10;56.30
39777;DHT22;25453;48.162;14.510;2024-02-21T13:35:27;13.10;56.20
39777;DHT22;25453;48.162;14.510;2024-02-21T13:37:55;13.20;56.10
39777;DHT22;25453;48.162;14.510;2024-02-21T13:40:29;13.20;55.90
39777;DHT22;25453;48.162;14.510;2024-02-21T13:43:03;13.20;55.70
39777;DHT22;25453;48.162;14.510;2024-02-21T13:45:38;13.30;55.50
39777;DHT22;25453;48.162;14.510;2024-02-21T13:48:06;13.30;55.50
39777;DHT22;25453;48.162;14.510;2024-02-21T13:50:42;13.30;55.50
39777;DHT22;25453;48.162;14.510;2024-02-21T13:53:22;13.40;55.50
39777;DHT22;25453;48.162;14.510;2024-02-21T13:55:50;13.40;55.40
39777;DHT22;25453;48.162;14.510;2024-02-21T13:58:23;13.40;55.40
39777;DHT22;25453;48.162;14.510;2024-02-21T14:00:52;13.50;55.50
39777;DHT22;25453;48.162;14.510;2024-02-21T14:03:26;13.60;55.40
39777;DHT22;25453;48.162;14.510;2024-02-21T14:05:53;13.60;55.30
39777;DHT22;25453;48.162;14.510;2024-02-21T14:08:28;13.60;55.20
39777;DHT22;25453;48.162;14.510;2024-02-21T14:10:56;13.70;55.10
39777;DHT22;25453;48.162;14.510;2024-02-21T14:13:33;13.70;55.10
39777;DHT22;25453;48.162;14.510;2024-02-21T14:16:00;13.70;55.10
39777;DHT22;25453;48.162;14.510;2024-02-21T14:18:33;13.80;55.10
39777;DHT22;25453;48.162;14.510;2024-02-21T14:21:01;13.80;54.80
39777;DHT22;25453;48.162;14.510;2024-02-21T14:23:28;13.70;54.50
39777;DHT22;25453;48.162;14.510;2024-02-21T14:26:01;13.70;54.40
39777;DHT22;25453;48.162;14.510;2024-02-21T14:28:30;13.60;54.50
39777;DHT22;25453;48.162;14.510;2024-02-21T14:31:04;13.60;54.50
39777;DHT22;25453;48.162;14.510;2024-02-21T14:33:35;13.60;54.50
39777;DHT22;25453;48.162;14.510;2024-02-21T14:36:09;13.60;54.50
39777;DHT22;25453;48.162;14.510;2024-02-21T14:38:37;13.50;54.30
39777;DHT22;25453;48.162;14.510;2024-02-21T14:41:10;13.50;54.30
39777;DHT22;25453;48.162;14.510;2024-02-21T14:43:41;13.40;54.40
39777;DHT22;25453;48.162;14.510;2024-02-21T14:46:14;13.40;54.50
39777;DHT22;25453;48.162;14.510;2024-02-21T14:48:48;13.40;54.50
39777;DHT22;25453;48.162;14.510;2024-02-21T14:51:21;13.40;54.50
39777;DHT22;25453;48.162;14.510;2024-02-21T14:53:49;13.30;54.40
39777;DHT22;25453;48.162;14.510;2024-02-21T14:56:22;13.20;54.30
39777;DHT22;25453;48.162;14.510;2024-02-21T14:58:50;13.20;54.50
39777;DHT22;25453;48.162;14.510;2024-02-21T15:01:37;13.20;54.50
39777;DHT22;25453;48.162;14.510;2024-02-21T15:04:07;13.20;54.50
39777;DHT22;25453;48.162;14.510;2024-02-21T15:06:41;13.20;54.60
39777;DHT22;25453;48.162;14.510;2024-02-21T15:09:10;13.20;54.60
39777;DHT22;25453;48.162;14.510;2024-02-21T15:11:40;13.20;54.60
39777;DHT22;25453;48.162;14.510;2024-02-21T15:14:14;13.10;54.60
39777;DHT22;25453;48.162;14.510;2024-02-21T15:16:41;13.10;54.60
39777;DHT22;25453;48.162;14.510;2024-02-21T15:19:14;13.10;54.70
39777;DHT22;25453;48.162;14.510;2024-02-21T15:21:42;13.10;54.80
39777;DHT22;25453;48.162;14.510;2024-02-21T15:24:15;13.10;54.80
39777;DHT22;25453;48.162;14.510;2024-02-21T15:26:43;13.10;54.80
39777;DHT22;25453;48.162;14.510;2024-02-21T15:29:17;13.00;54.70
39777;DHT22;25453;48.162;14.510;2024-02-21T15:31:44;13.00;54.70
39777;DHT22;25453;48.162;14.510;2024-02-21T15:34:20;13.00;54.70
39777;DHT22;25453;48.162;14.510;2024-02-21T15:36:47;12.90;54.70
39777;DHT22;25453;48.162;14.510;2024-02-21T15:39:21;12.90;54.90
39777;DHT22;25453;48.162;14.510;2024-02-21T15:41:48;12.80;55.00
39777;DHT22;25453;48.162;14.510;2024-02-21T15:44:16;12.80;55.20
39777;DHT22;25453;48.162;14.510;2024-02-21T15:46:49;12.70;55.30
39777;DHT22;25453;48.162;14.510;2024-02-21T15:49:18;12.70;55.40
39777;DHT22;25453;48.162;14.510;2024-02-21T15:51:53;12.60;55.60
39777;DHT22;25453;48.162;14.510;2024-02-21T15:54:26;12.50;55.90
39777;DHT22;25453;48.162;14.510;2024-02-21T15:57:00;12.40;56.00
39777;DHT22;25453;48.162;14.510;2024-02-21T15:59:33;12.40;56.20